Time;durP1;ratioP1;P1;durP2;ratioP2;P2;SDS_P1;SDS_P2;PMS_P1;PMS_P2;Temp;Humidity;BMP_temperature;BMP_pressure;BME280_temperature;BME280_humidity;BME280_pressure;Samples;Min_cycle;Max_cycle;Signal;HPM_P1;HPM_P2
2023/05/21 00:00:27;;;;;;;31.30;24.80;;;;;;;12.44;87.33;101055.54;105589;1252;82483;-59
2023/05/21 00:03:16;;;;;;;33.30;24.70;;;;;;;12.40;87.28;101050.94;105645;1257;74736;-59
2023/05/21 00:05:45;;;;;;;30.80;24.00;;;;;;;12.37;87.35;101053.83;105643;1251;69167;-59
2023/05/21 00:08:14;;;;;;;30.60;24.10;;;;;;;12.36;87.26;101051.95;105663;1251;69157;-59
2023/05/21 00:10:42;;;;;;;31.00;22.60;;;;;;;12.34;87.37;101053.21;105659;1251;74610;-59
2023/05/21 00:13:11;;;;;;;32.20;25.30;;;;;;;12.34;87.46;101050.79;105741;1251;82424;-59
2023/05/21 00:15:39;;;;;;;30.90;23.80;;;;;;;12.33;87.38;101050.63;105589;1251;73778;-59
2023/05/21 00:18:07;;;;;;;30.80;23.00;;;;;;;12.33;87.54;101052.05;105577;1251;69167;-59
2023/05/21 00:20:35;;;;;;;33.30;25.10;;;;;;;12.34;87.65;101052.02;105621;1253;69102;-59
2023/05/21 00:23:04;;;;;;;30.00;24.40;;;;;;;12.35;87.82;101052.66;105624;1256;74629;-59
2023/05/21 00:25:32;;;;;;;32.80;25.40;;;;;;;12.35;87.83;101055.66;105641;1251;83176;-59
2023/05/21 00:28:01;;;;;;;30.20;23.50;;;;;;;12.36;88.05;101055.97;105635;1254;72873;-59
2023/05/21 00:30:30;;;;;;;31.10;24.00;;;;;;;12.37;88.28;101052.27;105687;1255;70543;-59
2023/05/21 00:33:01;;;;;;;29.40;24.40;;;;;;;12.39;88.72;101057.63;105624;1256;69246;-59
2023/05/21 00:35:30;;;;;;;29.00;23.60;;;;;;;12.43;88.86;101056.45;105660;1251;73794;-59
2023/05/21 00:37:58;;;;;;;26.90;21.80;;;;;;;12.46;89.18;101057.90;105663;1251;82482;-59
2023/05/21 00:40:26;;;;;;;28.80;22.50;;;;;;;12.47;88.92;101055.23;105605;1256;73662;-59
2023/05/21 00:42:56;;;;;;;30.60;24.10;;;;;;;12.46;88.79;101055.43;105600;1253;69201;-59
2023/05/21 00:45:24;;;;;;;27.90;23.00;;;;;;;12.50;89.38;101054.44;105604;1251;69536;-59
2023/05/21 00:47:55;;;;;;;27.50;23.00;;;;;;;12.54;89.69;101056.07;105630;1251;73793;-59
2023/05/21 00:50:24;;;;;;;27.20;22.40;;;;;;;12.56;89.70;101055.48;105566;1251;82964;-59
2023/05/21 00:52:53;;;;;;;28.20;21.30;;;;;;;12.56;89.82;101053.34;105586;1251;73867;-59
2023/05/21 00:55:21;;;;;;;27.30;22.10;;;;;;;12.56;89.59;101053.52;105632;1255;69198;-59
2023/05/21 00:57:49;;;;;;;27.90;22.50;;;;;;;12.57;89.64;101051.23;105644;1251;69185;-59
2023/05/21 01:00:18;;;;;;;26.60;21.70;;;;;;;12.57;89.78;101049.45;105633;1256;75036;-59
2023/05/21 01:02:48;;;;;;;26.00;21.90;;;;;;;12.63;90.32;101051.20;105705;1251;83294;-59
2023/05/21 01:05:17;;;;;;;26.00;21.20;;;;;;;12.65;89.90;101050.08;105655;1255;72362;-59
2023/05/21 01:07:47;;;;;;;22.70;20.30;;;;;;;12.64;89.82;101049.41;105674;1257;69263;-59
2023/05/21 01:10:15;;;;;;;23.10;19.50;;;;;;;12.64;89.67;101050.30;105675;1256;69210;-59
2023/05/21 01:12:44;;;;;;;24.50;20.10;;;;;;;12.61;89.48;101056.86;105641;1256;75090;-59
2023/05/21 01:15:13;;;;;;;25.10;18.80;;;;;;;12.59;89.45;101057.28;105591;1257;83533;-59
2023/05/21 01:17:41;;;;;;;21.60;19.40;;;;;;;12.58;89.39;101054.35;105626;1251;72662;-59
2023/05/21 01:20:10;;;;;;;23.30;18.70;;;;;;;12.57;89.55;101053.14;105586;1251;69162;-59
2023/05/21 01:22:52;;;;;;;25.10;18.60;;;;;;;12.57;89.63;101050.88;105655;1256;69172;-59
2023/05/21 01:25:22;;;;;;;24.10;19.10;;;;;;;12.57;89.64;101048.25;105564;1251;73844;-59
2023/05/21 01:27:50;;;;;;;22.10;17.90;;;;;;;12.57;89.76;101045.98;105661;1256;83295;-59
2023/05/21 01:30:21;;;;;;;23.90;18.30;;;;;;;12.56;89.73;101042.15;105643;1255;72154;-59
2023/05/21 01:33:40;;;;;;;21.60;18.70;;;;;;;12.55;89.82;101043.05;105648;1251;69050;-59
2023/05/21 01:36:16;;;;;;;24.00;17.70;;;;;;;12.56;90.00;101043.20;105510;1251;69070;-59
2023/05/21 01:38:53;;;;;;;21.60;17.90;;;;;;;12.55;90.05;101043.40;105668;1251;74590;-59
2023/05/21 01:41:22;;;;;;;19.80;17.30;;;;;;;12.56;90.25;101039.86;105648;1255;83949;-59
2023/05/21 01:43:51;;;;;;;21.50;17.20;;;;;;;12.56;90.23;101040.93;105633;1251;74402;-59
2023/05/21 01:46:23;;;;;;;19.00;16.60;;;;;;;12.56;90.30;101041.43;105547;1257;69121;-59
2023/05/21 01:48:51;;;;;;;20.60;17.10;;;;;;;12.55;90.30;101036.03;105713;1251;69062;-59
2023/05/21 01:51:20;;;;;;;20.30;16.80;;;;;;;12.58;90.75;101035.77;105639;1253;75125;-59
2023/05/21 01:53:49;;;;;;;22.10;16.60;;;;;;;12.57;90.47;101033.89;105684;1251;81585;-59
2023/05/21 01:56:17;;;;;;;19.10;15.90;;;;;;;12.55;90.30;101038.48;105693;1251;72832;-59
2023/05/21 01:58:46;;;;;;;19.20;15.40;;;;;;;12.52;90.03;101037.39;105608;1251;69187;-59
2023/05/21 02:01:14;;;;;;;20.10;16.40;;;;;;;12.50;90.07;101039.18;105597;1257;70433;-59
2023/05/21 02:03:42;;;;;;;21.10;15.90;;;;;;;12.47;90.25;101037.52;105632;1256;74340;-59
2023/05/21 02:06:11;;;;;;;18.20;15.50;;;;;;;12.47;90.31;101039.99;105571;1251;83145;-59
2023/05/21 02:08:39;;;;;;;18.10;16.10;;;;;;;12.45;90.24;101036.75;105616;1255;73934;-60
2023/05/21 02:11:07;;;;;;;19.30;15.90;;;;;;;12.44;90.28;101036.41;105582;1255;69166;-61
2023/05/21 02:13:40;;;;;;;21.40;17.30;;;;;;;12.41;90.20;101034.41;105582;1256;69148;-61
2023/05/21 02:16:10;;;;;;;17.60;14.70;;;;;;;12.42;90.34;101032.83;105660;1251;73816;-66
2023/05/21 02:18:46;;;;;;;20.40;16.10;;;;;;;12.40;90.33;101030.27;105653;1256;83511;-60
2023/05/21 02:21:15;;;;;;;18.30;15.50;;;;;;;12.39;90.17;101031.70;105568;1251;73731;-60
2023/05/21 02:23:44;;;;;;;16.90;14.70;;;;;;;12.35;89.93;101031.48;105755;1251;69158;-58
2023/05/21 02:26:12;;;;;;;18.10;15.20;;;;;;;12.30;89.77;101029.02;105743;1251;69058;-58
2023/05/21 02:28:40;;;;;;;18.50;15.20;;;;;;;12.26;90.18;101026.35;105690;1256;73081;-58
2023/05/21 02:31:09;;;;;;;17.60;15.00;;;;;;;12.26;90.06;101029.52;105561;1251;82557;-58
2023/05/21 02:33:40;;;;;;;16.80;14.20;;;;;;;12.21;89.87;101033.35;105681;1251;73103;-58
2023/05/21 02:36:12;;;;;;;17.00;15.20;;;;;;;12.18;89.75;101030.14;105608;1251;69167;-58
2023/05/21 02:38:44;;;;;;;17.30;14.10;;;;;;;12.15;89.81;101023.23;105624;1252;69157;-58
2023/05/21 02:41:12;;;;;;;18.30;14.50;;;;;;;12.11;89.62;101022.30;105680;1251;74863;-58
2023/05/21 02:43:40;;;;;;;15.40;13.50;;;;;;;12.08;89.49;101016.45;105642;1251;83377;-58
2023/05/21 02:46:09;;;;;;;15.90;13.10;;;;;;;12.04;89.44;101013.95;105672;1256;73792;-58
2023/05/21 02:48:37;;;;;;;17.50;14.10;;;;;;;12.01;89.27;101009.66;105627;1251;69071;-58
2023/05/21 02:51:06;;;;;;;16.90;13.90;;;;;;;11.97;89.23;101012.43;105613;1257;69286;-58
2023/05/21 02:53:34;;;;;;;15.90;13.40;;;;;;;11.91;89.06;101012.97;105572;1251;73874;-58
2023/05/21 02:56:03;;;;;;;17.90;13.60;;;;;;;11.86;88.98;101014.17;105545;1251;83703;-58
2023/05/21 02:58:32;;;;;;;18.80;14.70;;;;;;;11.84;89.49;101013.70;105670;1251;73954;-58
2023/05/21 03:01:00;;;;;;;17.50;15.00;;;;;;;11.84;89.51;101015.27;105683;1256;69122;-58
2023/05/21 03:03:29;;;;;;;20.00;14.40;;;;;;;11.83;89.64;101010.23;105567;1251;69061;-58
2023/05/21 03:05:57;;;;;;;16.10;13.40;;;;;;;11.79;89.33;101011.91;105645;1254;73491;-58
2023/05/21 03:08:26;;;;;;;16.10;13.50;;;;;;;11.76;89.45;101012.73;105587;1251;82892;-58
2023/05/21 03:10:54;;;;;;;17.30;14.30;;;;;;;11.75;89.64;101008.36;105670;1256;72691;-58
2023/05/21 03:13:23;;;;;;;17.80;14.70;;;;;;;11.76;89.93;101004.15;105657;1251;69176;-58
2023/05/21 03:15:55;;;;;;;17.20;14.00;;;;;;;11.74;89.73;101004.54;105632;1256;69167;-58
2023/05/21 03:18:23;;;;;;;16.80;14.00;;;;;;;11.71;89.66;101004.46;105643;1255;73940;-58
2023/05/21 03:20:52;;;;;;;16.90;13.50;;;;;;;11.70;89.91;101007.31;105619;1251;81598;-58
2023/05/21 03:23:20;;;;;;;17.10;14.10;;;;;;;11.69;89.91;101005.42;105579;1254;72730;-58
2023/05/21 03:25:49;;;;;;;19.70;16.60;;;;;;;11.68;89.93;101005.12;105633;1251;69159;-58
2023/05/21 03:28:17;;;;;;;16.50;14.40;;;;;;;11.68;90.34;101003.17;105641;1251;69201;-58
2023/05/21 03:30:50;;;;;;;18.00;14.10;;;;;;;11.67;90.22;100998.48;105532;1256;166085;-58
2023/05/21 03:33:48;;;;;;;18.90;15.30;;;;;;;11.67;90.38;100999.55;105520;1256;83522;-58
2023/05/21 03:36:35;;;;;;;17.30;14.80;;;;;;;11.69;90.68;101000.70;105600;1251;73906;-58
2023/05/21 03:39:03;;;;;;;18.30;14.80;;;;;;;11.69;90.72;100998.95;105673;1251;69146;-58
2023/05/21 03:41:33;;;;;;;15.50;13.80;;;;;;;11.71;90.98;101001.85;105654;1251;69173;-58
2023/05/21 03:44:07;;;;;;;18.70;15.00;;;;;;;11.74;91.15;100996.88;105675;1255;74260;-58
2023/05/21 03:47:01;;;;;;;16.70;14.70;;;;;;;11.75;91.13;100998.23;105521;1251;83479;-57
2023/05/21 03:49:33;;;;;;;21.50;18.20;;;;;;;11.79;91.38;101001.78;105632;1256;73663;-57
2023/05/21 03:52:02;;;;;;;18.40;15.40;;;;;;;11.81;91.55;100999.60;105648;1251;69173;-57
2023/05/21 03:54:30;;;;;;;17.70;14.30;;;;;;;11.83;91.38;100998.47;105682;1253;69173;-57
2023/05/21 03:57:02;;;;;;;18.90;14.80;;;;;;;11.86;91.45;101001.94;105627;1251;74901;-57
2023/05/21 03:59:30;;;;;;;16.50;14.70;;;;;;;11.89;91.45;101002.35;105600;1251;82312;-57
2023/05/21 04:01:59;;;;;;;18.40;15.60;;;;;;;11.93;91.45;101003.99;105749;1251;73372;-57
2023/05/21 04:04:28;;;;;;;19.20;16.40;;;;;;;11.96;91.77;101000.70;105641;1251;69221;-57
2023/05/21 04:06:56;;;;;;;19.60;15.10;;;;;;;11.99;91.73;101002.38;105653;1251;69185;-57
2023/05/21 04:09:26;;;;;;;18.40;15.80;;;;;;;12.04;91.92;101003.29;105554;1252;74877;-57
2023/05/21 04:11:54;;;;;;;17.60;15.40;;;;;;;12.11;92.39;101007.25;105604;1257;83334;-57
2023/05/21 04:14:23;;;;;;;17.60;15.30;;;;;;;12.17;92.69;101009.64;105649;1251;73733;-57
2023/05/21 04:16:52;;;;;;;19.30;15.50;;;;;;;12.23;92.77;101009.80;105684;1251;69167;-57
2023/05/21 04:19:21;;;;;;;18.80;16.10;;;;;;;12.31;93.25;101011.96;105637;1251;69091;-58
2023/05/21 04:21:49;;;;;;;19.60;17.00;;;;;;;12.41;93.65;101011.30;105622;1256;74911;-57
2023/05/21 04:24:18;;;;;;;20.60;16.40;;;;;;;12.51;93.96;101014.44;105584;1257;83503;-57
2023/05/21 04:26:59;;;;;;;24.90;21.60;;;;;;;12.58;93.98;101015.93;105570;1257;73583;-57
2023/05/21 04:29:30;;;;;;;23.00;18.80;;;;;;;12.67;94.18;101014.39;105660;1251;69166;-57
2023/05/21 04:31:58;;;;;;;21.80;19.00;;;;;;;12.74;94.12;101018.54;105565;1251;69172;-57
2023/05/21 04:34:26;;;;;;;20.80;18.20;;;;;;;12.82;94.13;101019.27;105656;1251;73853;-57
2023/05/21 04:36:55;;;;;;;24.90;18.80;;;;;;;12.90;94.55;101017.59;105621;1251;82358;-57
2023/05/21 04:39:24;;;;;;;22.50;19.10;;;;;;;12.99;94.61;101014.45;105575;1254;72771;-57
2023/05/21 04:41:55;;;;;;;20.30;17.60;;;;;;;13.06;94.73;101012.08;105588;1251;69186;-58
2023/05/21 04:44:24;;;;;;;20.50;16.80;;;;;;;13.15;94.97;101009.10;105621;1256;69185;-58
2023/05/21 04:46:56;;;;;;;20.70;16.60;;;;;;;13.25;95.21;101012.27;105743;1251;74818;-57
2023/05/21 04:49:24;;;;;;;18.00;14.90;;;;;;;13.35;95.33;101010.31;105579;1251;82573;-57
2023/05/21 04:51:53;;;;;;;20.40;15.60;;;;;;;13.47;95.38;101008.44;105659;1251;73483;-58
2023/05/21 04:54:22;;;;;;;18.10;15.10;;;;;;;13.57;95.38;101004.69;105679;1251;69200;-58
2023/05/21 04:56:50;;;;;;;20.80;15.40;;;;;;;13.67;95.35;100999.23;105583;1251;69246;-58
2023/05/21 04:59:19;;;;;;;19.70;16.20;;;;;;;13.78;95.38;101000.17;105683;1257;74007;-58
2023/05/21 05:01:47;;;;;;;20.20;15.20;;;;;;;13.89;95.47;100998.30;105653;1251;82554;-58
2023/05/21 05:04:15;;;;;;;23.50;16.40;;;;;;;14.01;95.28;101000.45;105616;1252;73775;-58
2023/05/21 05:06:44;;;;;;;17.30;15.50;;;;;;;14.13;95.28;101003.48;105528;1257;69195;-58
2023/05/21 05:09:12;;;;;;;17.60;15.80;;;;;;;14.25;95.28;101004.55;105533;1257;69071;-58
2023/05/21 05:11:40;;;;;;;17.50;14.80;;;;;;;14.36;95.24;101001.61;105686;1256;75064;-58
2023/05/21 05:14:09;;;;;;;19.10;14.80;;;;;;;14.48;95.23;101000.38;105551;1257;83387;-58
2023/05/21 05:16:37;;;;;;;16.00;14.00;;;;;;;14.60;94.80;101001.16;105571;1253;73974;-58
2023/05/21 05:19:05;;;;;;;17.70;14.70;;;;;;;14.70;94.73;101004.36;105600;1251;69173;-58
2023/05/21 05:21:34;;;;;;;18.50;14.80;;;;;;;14.82;94.67;101002.07;105652;1251;69075;-58
2023/05/21 05:24:02;;;;;;;16.40;13.00;;;;;;;14.94;94.32;100998.20;105545;1257;73992;-58
2023/05/21 05:26:31;;;;;;;15.70;14.00;;;;;;;15.05;93.84;100993.46;105615;1251;83828;-58
2023/05/21 05:29:00;;;;;;;16.50;13.30;;;;;;;15.16;93.78;100993.30;105650;1256;73931;-59
2023/05/21 05:31:28;;;;;;;15.00;12.90;;;;;;;15.26;93.41;100992.49;105624;1251;69051;-58
2023/05/21 05:33:57;;;;;;;18.30;13.00;;;;;;;15.36;93.25;100991.14;105630;1251;69176;-58
2023/05/21 05:36:26;;;;;;;15.20;13.50;;;;;;;15.45;92.89;100992.98;105588;1256;74188;-58
2023/05/21 05:38:54;;;;;;;15.70;12.30;;;;;;;15.53;92.65;100993.99;105617;1251;83471;-59
2023/05/21 05:41:23;;;;;;;16.70;12.00;;;;;;;15.62;92.42;100985.30;105610;1256;73190;-58
2023/05/21 05:43:51;;;;;;;15.60;11.20;;;;;;;15.71;91.88;100984.71;105698;1256;69198;-58
2023/05/21 05:46:21;;;;;;;12.60;10.50;;;;;;;15.79;91.55;100987.30;105706;1254;69230;-58
2023/05/21 05:48:50;;;;;;;12.00;10.00;;;;;;;15.89;90.99;100985.78;105689;1255;73917;-58
2023/05/21 05:51:19;;;;;;;12.40;10.00;;;;;;;15.97;90.62;100983.80;105645;1251;83063;-58
2023/05/21 05:53:47;;;;;;;11.40;9.50;;;;;;;16.05;90.20;100984.46;105577;1257;73712;-58
2023/05/21 05:56:16;;;;;;;12.60;10.30;;;;;;;16.13;89.81;100978.07;105654;1252;69045;-58
2023/05/21 05:58:44;;;;;;;12.00;10.50;;;;;;;16.21;89.58;100977.10;105552;1251;69598;-58
2023/05/21 06:01:15;;;;;;;13.20;9.60;;;;;;;16.30;89.28;100974.19;105611;1256;75109;-58
2023/05/21 06:03:44;;;;;;;14.50;11.10;;;;;;;16.38;88.99;100973.61;105593;1257;83416;-58
2023/05/21 06:06:15;;;;;;;10.80;9.50;;;;;;;16.45;88.76;100968.61;105547;1256;73127;-59
2023/05/21 06:08:45;;;;;;;11.50;9.90;;;;;;;16.54;88.65;100968.50;105626;1256;69150;-59
2023/05/21 06:11:15;;;;;;;11.10;9.90;;;;;;;16.64;88.39;100964.79;105629;1251;69228;-59
2023/05/21 06:13:44;;;;;;;11.30;10.10;;;;;;;16.73;88.11;100968.91;105671;1256;73828;-59
2023/05/21 06:16:14;;;;;;;14.30;10.80;;;;;;;16.83;87.83;100970.73;105727;1256;83441;-59
2023/05/21 06:18:43;;;;;;;12.10;10.80;;;;;;;16.90;87.35;100966.61;105622;1254;72355;-59
2023/05/21 06:21:11;;;;;;;12.50;10.70;;;;;;;16.98;87.02;100965.64;105509;1257;69138;-59
2023/05/21 06:23:40;;;;;;;13.90;11.00;;;;;;;17.06;86.65;100960.46;105688;1255;69124;-59
2023/05/21 06:26:09;;;;;;;11.80;10.10;;;;;;;17.13;86.42;100964.46;105609;1257;73131;-59
2023/05/21 06:28:37;;;;;;;12.40;9.90;;;;;;;17.23;86.18;100962.35;105577;1257;83196;-59
2023/05/21 06:31:06;;;;;;;11.30;9.20;;;;;;;17.33;86.13;100963.85;105719;1251;73355;-59
2023/05/21 06:33:36;;;;;;;11.00;9.90;;;;;;;17.45;85.72;100958.27;105598;1251;69178;-59
2023/05/21 06:36:05;;;;;;;12.50;8.80;;;;;;;17.55;85.56;100952.89;105597;1256;69198;-59
2023/05/21 06:38:33;;;;;;;13.70;9.30;;;;;;;17.66;85.23;100956.51;105616;1257;73842;-59
2023/05/21 06:41:02;;;;;;;9.50;8.50;;;;;;;17.77;85.00;100960.48;105524;1257;83533;-59
2023/05/21 06:43:53;;;;;;;13.50;9.50;;;;;;;17.90;84.67;100963.86;105611;1256;73925;-59
2023/05/21 06:46:53;;;;;;;9.30;8.20;;;;;;;18.02;84.16;100963.80;105587;1256;69680;-59
2023/05/21 06:49:21;;;;;;;11.30;8.60;;;;;;;18.12;84.01;100957.77;105671;1257;69186;-61
2023/05/21 06:51:51;;;;;;;10.00;8.70;;;;;;;18.22;83.82;100959.41;105653;1251;73698;-61
2023/05/21 06:54:19;;;;;;;9.80;8.50;;;;;;;18.33;83.66;100962.67;105769;1257;83573;-59
2023/05/21 06:56:49;;;;;;;12.60;9.90;;;;;;;18.43;83.21;100965.26;105768;1251;72673;-58
2023/05/21 06:59:18;;;;;;;11.70;9.30;;;;;;;18.51;82.84;100967.41;105620;1257;69889;-58
2023/05/21 07:01:46;;;;;;;12.50;9.60;;;;;;;18.60;82.46;100964.39;105618;1256;69074;-58
2023/05/21 07:04:14;;;;;;;12.00;9.80;;;;;;;18.71;82.20;100965.88;105749;1255;73824;-60
2023/05/21 07:06:44;;;;;;;11.40;9.40;;;;;;;18.80;81.74;100964.59;105680;1254;82259;-59
2023/05/21 07:09:12;;;;;;;13.50;10.00;;;;;;;18.91;81.36;100964.81;105537;1254;72764;-59
2023/05/21 07:11:40;;;;;;;11.00;9.70;;;;;;;18.98;80.79;100966.32;105613;1257;69265;-58
2023/05/21 07:14:09;;;;;;;13.00;10.30;;;;;;;19.07;80.77;100972.46;105618;1251;69039;-58
2023/05/21 07:16:38;;;;;;;10.90;9.30;;;;;;;19.16;80.37;100972.61;105699;1255;73222;-59
2023/05/21 07:19:07;;;;;;;;;;;;;;;19.25;80.06;100967.42;105681;1256;83407;-59
2023/05/21 07:21:36;;;;;;;11.90;8.90;;;;;;;19.36;79.68;100973.27;105653;1256;74355;-59
2023/05/21 07:24:06;;;;;;;11.00;8.00;;;;;;;19.47;79.36;100970.81;105570;1257;69121;-59
2023/05/21 07:26:37;;;;;;;13.10;9.30;;;;;;;19.55;78.91;100968.86;105656;1251;69167;-59
2023/05/21 07:29:06;;;;;;;8.80;7.70;;;;;;;19.65;78.90;100966.40;105616;1255;74962;-59
2023/05/21 07:31:34;;;;;;;9.50;8.50;;;;;;;19.76;78.43;100962.69;105668;1251;83724;-59
2023/05/21 07:34:03;;;;;;;11.30;8.70;;;;;;;19.88;78.38;100958.89;105647;1251;73677;-59
2023/05/21 07:36:32;;;;;;;12.70;7.80;;;;;;;19.99;78.06;100960.30;105659;1256;69192;-59
2023/05/21 07:39:01;;;;;;;20.20;8.50;;;;;;;20.10;77.84;100956.70;105713;1251;69156;-59
2023/05/21 07:41:29;;;;;;;12.50;8.00;;;;;;;20.21;77.45;100954.66;105659;1256;74776;-59
2023/05/21 07:44:00;;;;;;;9.30;8.20;;;;;;;20.32;77.24;100953.08;105713;1256;82797;-59
2023/05/21 07:46:28;;;;;;;8.90;7.40;;;;;;;20.44;76.97;100955.94;105622;1251;73979;-59
2023/05/21 07:48:57;;;;;;;9.30;7.60;;;;;;;20.55;76.48;100952.90;105635;1256;69061;-59
2023/05/21 07:51:26;;;;;;;9.00;6.70;;;;;;;20.65;76.09;100953.64;105654;1251;69058;-59
2023/05/21 07:53:55;;;;;;;12.00;6.70;;;;;;;20.74;75.50;100953.52;105611;1251;75017;-59
2023/05/21 07:56:31;;;;;;;7.30;6.60;;;;;;;20.86;74.98;100953.21;105652;1255;83050;-59
2023/05/21 07:59:00;;;;;;;7.30;6.50;;;;;;;20.97;74.40;100949.77;105618;1251;72638;-59
2023/05/21 08:01:29;;;;;;;7.80;6.00;;;;;;;21.05;73.66;100949.49;105716;1256;69228;-60
2023/05/21 08:04:04;;;;;;;9.60;7.20;;;;;;;21.15;73.43;100946.52;105665;1257;69115;-58
2023/05/21 08:06:33;;;;;;;7.80;6.30;;;;;;;21.27;72.90;100947.27;105566;1252;74877;-59
2023/05/21 08:09:02;;;;;;;7.70;6.10;;;;;;;21.37;72.46;100947.55;105590;1257;83658;-59
2023/05/21 08:11:31;;;;;;;10.70;6.90;;;;;;;21.49;72.25;100947.99;105594;1251;73816;-58
2023/05/21 08:14:00;;;;;;;9.90;6.10;;;;;;;21.62;71.83;100950.00;105744;1256;69665;-59
2023/05/21 08:16:29;;;;;;;8.60;6.00;;;;;;;21.72;71.17;100946.96;105710;1257;69061;-59
2023/05/21 08:18:58;;;;;;;8.40;5.90;;;;;;;21.83;70.65;100944.35;105685;1252;74992;-59
2023/05/21 08:21:26;;;;;;;7.80;5.90;;;;;;;21.94;70.02;100942.27;105716;1251;83586;-59
2023/05/21 08:23:56;;;;;;;8.50;5.70;;;;;;;22.04;69.78;100940.45;105684;1251;73931;-59
2023/05/21 08:26:25;;;;;;;8.50;5.10;;;;;;;22.17;69.30;100934.96;105617;1252;69185;-59
2023/05/21 08:28:53;;;;;;;8.00;4.70;;;;;;;22.29;68.76;100939.38;105724;1255;69153;-59
2023/05/21 08:31:22;;;;;;;8.20;5.10;;;;;;;22.39;68.03;100940.05;105633;1257;75357;-59
2023/05/21 08:33:52;;;;;;;6.30;4.90;;;;;;;22.47;67.20;100939.61;105727;1251;83298;-59
2023/05/21 08:36:24;;;;;;;6.70;4.90;;;;;;;22.54;66.74;100937.14;105644;1253;73488;-59
2023/05/21 08:38:59;;;;;;;6.50;4.40;;;;;;;22.61;66.32;100940.83;105636;1255;69179;-59
2023/05/21 08:41:38;;;;;;;;;;;;;;;22.67;65.56;100941.21;105663;1251;69054;-58
2023/05/21 08:44:10;;;;;;;6.80;4.60;;;;;;;22.73;65.27;100939.31;105567;1251;74751;-59
2023/05/21 08:46:40;;;;;;;7.80;4.40;;;;;;;22.79;65.09;100940.46;105534;1251;82247;-59
2023/05/21 08:49:11;;;;;;;5.60;4.70;;;;;;;22.87;64.72;100938.37;105569;1251;73737;-58
2023/05/21 08:51:40;;;;;;;9.80;5.30;;;;;;;22.92;63.97;100939.20;105677;1257;69216;-58
2023/05/21 08:54:12;;;;;;;6.80;3.70;;;;;;;22.96;63.32;100941.64;105671;1251;69057;-59
2023/05/21 08:56:44;;;;;;;7.00;5.00;;;;;;;23.01;63.00;100945.02;105579;1257;73959;-58
2023/05/21 08:59:14;;;;;;;6.90;4.20;;;;;;;23.07;63.05;100942.49;105588;1251;82540;-58
2023/05/21 09:01:44;;;;;;;10.70;4.60;;;;;;;23.15;63.07;100942.77;105672;1256;73857;-58
2023/05/21 09:04:26;;;;;;;5.50;4.30;;;;;;;23.27;62.58;100939.77;105630;1251;69117;-58
2023/05/21 09:06:56;;;;;;;6.80;4.10;;;;;;;23.35;61.82;100946.14;105604;1257;69154;-58
2023/05/21 09:09:49;;;;;;;5.20;4.30;;;;;;;23.39;61.42;100941.16;105404;1257;74911;-58
2023/05/21 09:12:18;;;;;;;7.90;4.10;;;;;;;23.45;61.34;100937.08;105665;1252;83167;-59
2023/05/21 09:14:46;;;;;;;5.50;4.30;;;;;;;23.59;61.11;100930.60;105605;1255;72698;-59
2023/05/21 09:17:19;;;;;;;9.20;4.40;;;;;;;23.70;60.64;100935.75;105631;1257;69211;-59
2023/05/21 09:20:10;;;;;;;6.50;3.90;;;;;;;23.77;59.82;100933.18;105634;1252;69170;-59
2023/05/21 09:22:44;;;;;;;5.50;3.90;;;;;;;23.82;59.02;100940.84;105661;1255;75260;-59
2023/05/21 09:25:14;;;;;;;4.50;3.60;;;;;;;23.93;58.80;100932.76;105594;1251;83248;-59
2023/05/21 09:27:43;;;;;;;6.40;3.60;;;;;;;24.10;58.52;100935.92;105621;1257;73956;-58
2023/05/21 09:30:16;;;;;;;7.70;4.10;;;;;;;24.23;57.83;100935.18;105578;1257;69277;-58
2023/05/21 09:32:45;;;;;;;5.90;3.80;;;;;;;24.30;56.89;100935.50;105645;1255;69173;-58
2023/05/21 09:35:14;;;;;;;5.10;3.40;;;;;;;24.40;56.64;100933.59;105606;1257;74244;-59
2023/05/21 09:37:44;;;;;;;4.40;3.40;;;;;;;24.56;56.51;100928.09;105728;1251;81730;-59
2023/05/21 09:40:17;;;;;;;6.60;3.60;;;;;;;24.72;56.16;100928.98;105640;1252;72680;-58
2023/05/21 09:42:47;;;;;;;9.20;4.10;;;;;;;24.82;55.60;100924.33;105686;1251;68994;-59
2023/05/21 09:45:20;;;;;;;7.90;3.70;;;;;;;24.91;55.39;100926.37;105594;1251;69260;-59
2023/05/21 09:47:51;;;;;;;6.30;3.20;;;;;;;24.99;54.63;100922.32;105711;1256;73550;-59
2023/05/21 09:50:22;;;;;;;4.80;3.20;;;;;;;25.04;53.75;100920.74;105650;1251;82506;-59
2023/05/21 09:52:51;;;;;;;7.30;3.30;;;;;;;25.13;53.45;100926.20;105624;1253;73627;-58
2023/05/21 09:55:23;;;;;;;;;;;;;;;25.27;53.06;100922.42;105645;1255;69182;-59
2023/05/21 09:57:52;;;;;;;8.00;3.00;;;;;;;25.47;53.09;100921.17;105631;1251;69182;-59
2023/05/21 10:00:26;;;;;;;10.00;3.20;;;;;;;25.63;52.37;100920.58;105693;1255;74412;-59
2023/05/21 10:02:56;;;;;;;4.50;3.30;;;;;;;25.82;52.12;100916.52;105649;1255;83614;-59
2023/05/21 10:05:26;;;;;;;3.80;2.70;;;;;;;25.98;52.09;100916.82;105604;1256;72709;-59
2023/05/21 10:08:03;;;;;;;6.30;3.20;;;;;;;26.18;51.74;100910.64;105616;1252;69069;-59
2023/05/21 10:10:31;;;;;;;4.50;3.50;;;;;;;26.40;50.83;100912.65;105675;1257;69068;-59
2023/05/21 10:13:05;;;;;;;7.10;3.70;;;;;;;26.59;50.15;100901.97;105664;1251;73962;-59
2023/05/21 10:15:38;;;;;;;6.60;3.30;;;;;;;26.74;49.70;100907.27;105633;1255;83619;-59
2023/05/21 10:18:08;;;;;;;5.50;3.50;;;;;;;26.84;49.32;100905.74;105646;1251;72694;-59
2023/05/21 10:20:37;;;;;;;5.80;3.10;;;;;;;27.03;49.36;100906.26;105676;1251;69857;-59
2023/05/21 10:23:06;;;;;;;5.30;3.40;;;;;;;27.14;48.73;100907.13;105664;1257;69202;-59
2023/05/21 10:25:35;;;;;;;6.60;3.30;;;;;;;27.19;48.46;100902.70;105609;1251;74555;-59
2023/05/21 10:28:03;;;;;;;9.60;3.50;;;;;;;27.27;48.04;100900.10;105594;1256;83507;-59
2023/05/21 10:30:32;;;;;;;4.20;3.10;;;;;;;27.38;47.64;100899.20;105666;1251;73874;-59
2023/05/21 10:33:00;;;;;;;6.00;3.20;;;;;;;27.55;47.55;100894.38;105723;1251;69077;-59
2023/05/21 10:35:29;;;;;;;4.70;3.00;;;;;;;27.74;47.31;100896.84;105709;1255;69054;-59
2023/05/21 10:37:58;;;;;;;5.50;2.90;;;;;;;27.91;46.67;100895.97;105582;1251;75066;-59
2023/05/21 10:40:27;;;;;;;6.00;3.20;;;;;;;28.08;46.61;100895.15;105622;1256;83751;-59
2023/05/21 10:43:25;;;;;;;4.70;2.90;;;;;;;28.22;46.12;100886.70;105674;1251;73642;-59
2023/05/21 10:46:18;;;;;;;4.80;2.80;;;;;;;28.21;45.30;100888.63;105554;1251;69160;-59
2023/05/21 10:49:22;;;;;;;5.70;2.70;;;;;;;28.02;44.85;100882.61;105559;1251;69113;-59
2023/05/21 10:52:10;;;;;;;4.00;2.90;;;;;;;27.93;44.28;100880.16;105607;1257;74918;-59
2023/05/21 10:55:17;;;;;;;6.30;3.30;;;;;;;27.92;44.16;100869.45;105625;1253;83449;-60
2023/05/21 10:58:13;;;;;;;4.40;2.90;;;;;;;27.96;43.87;100878.80;105535;1257;73748;-60
2023/05/21 11:00:42;;;;;;;7.10;3.20;;;;;;;28.17;43.36;100873.33;105588;1251;69163;-60
2023/05/21 11:03:11;;;;;;;7.90;2.80;;;;;;;28.31;43.17;100876.92;105709;1257;69243;-60
2023/05/21 11:05:49;;;;;;;3.20;2.90;;;;;;;28.45;42.91;100872.82;105606;1257;74885;-60
2023/05/21 11:08:36;;;;;;;10.60;2.70;;;;;;;28.73;42.31;100875.75;105684;1252;83377;-60
2023/05/21 11:11:04;;;;;;;5.50;2.40;;;;;;;29.04;41.41;100873.41;105602;1256;72704;-60
2023/05/21 11:13:48;;;;;;;3.10;2.70;;;;;;;29.29;41.25;100866.05;105676;1256;69122;-60
2023/05/21 11:16:17;;;;;;;4.40;2.80;;;;;;;29.46;40.48;100867.33;105673;1257;69310;-60
2023/05/21 11:18:45;;;;;;;7.80;2.70;;;;;;;29.56;40.52;100866.09;105721;1256;74726;-60
2023/05/21 11:21:15;;;;;;;2.90;2.50;;;;;;;29.71;40.40;100865.66;105644;1257;82454;-60
2023/05/21 11:23:50;;;;;;;5.40;2.80;;;;;;;29.97;40.20;100863.50;105616;1257;73932;-60